Time;durP1;ratioP1;P1;durP2;ratioP2;P2;SDS_P1;SDS_P2;PMS_P1;PMS_P2;Temp;Humidity;BMP_temperature;BMP_pressure;BME280_temperature;BME280_humidity;BME280_pressure;Samples;Min_cycle;Max_cycle;Signal;HPM_P1;HPM_P2
2022/10/17 00:02:05;;;;;;;4.30;2.40;;;;;;;;;;5072970;28;20048;-69
2022/10/17 00:04:36;;;;;;;6.00;2.40;;;;;;;;;;5069206;28;20052;-69
2022/10/17 00:07:06;;;;;;;5.60;2.15;;;;;;;;;;5035558;28;20060;-69
2022/10/17 00:09:35;;;;;;;5.18;2.38;;;;;;;;;;5069238;28;20163;-69
2022/10/17 00:12:05;;;;;;;4.85;2.03;;;;;;;;;;5052393;28;20056;-69
2022/10/17 00:14:36;;;;;;;7.30;2.22;;;;;;;;;;5052417;28;20052;-69
2022/10/17 00:17:07;;;;;;;7.43;2.20;;;;;;;;;;5052442;28;20448;-69
2022/10/17 00:19:38;;;;;;;6.82;2.30;;;;;;;;;;5019069;28;20130;-69
2022/10/17 00:22:08;;;;;;;7.32;2.40;;;;;;;;;;5052737;28;20067;-68
2022/10/17 00:24:38;;;;;;;3.38;1.80;;;;;;;;;;5069168;28;20483;-69
2022/10/17 00:27:28;;;;;;;5.45;2.53;;;;;;;;;;5007748;28;20049;-69
2022/10/17 00:29:59;;;;;;;4.63;2.13;;;;;;;;;;5048933;28;20114;-68
2022/10/17 00:32:29;;;;;;;4.45;2.15;;;;;;;;;;5051442;28;20497;-69
2022/10/17 00:34:59;;;;;;;5.90;2.50;;;;;;;;;;5052558;28;20061;-69
2022/10/17 00:37:32;;;;;;;4.78;2.50;;;;;;;;;;5052475;28;20045;-69
2022/10/17 00:40:05;;;;;;;7.30;2.63;;;;;;;;;;5012580;28;20525;-69
2022/10/17 00:42:35;;;;;;;5.32;2.50;;;;;;;;;;5025919;28;20061;-69
2022/10/17 00:45:08;;;;;;;5.15;2.28;;;;;;;;;;4999296;28;20605;-70
2022/10/17 00:47:40;;;;;;;4.18;2.42;;;;;;;;;;5032534;28;20081;-70
2022/10/17 00:50:11;;;;;;;6.55;2.50;;;;;;;;;;5016420;28;20045;-69
2022/10/17 00:52:42;;;;;;;4.75;3.38;;;;;;;;;;4979603;28;20042;-68
2022/10/17 00:55:28;;;;;;;5.85;2.30;;;;;;;;;;4979677;28;20568;-68
2022/10/17 00:58:01;;;;;;;4.75;2.25;;;;;;;;;;4992496;28;20058;-67
2022/10/17 01:00:31;;;;;;;6.78;2.40;;;;;;;;;;4992751;28;20057;-67
2022/10/17 01:03:02;;;;;;;5.70;2.65;;;;;;;;;;4992449;28;20058;-67
2022/10/17 01:05:32;;;;;;;6.72;2.55;;;;;;;;;;4992528;28;20061;-67
2022/10/17 01:08:03;;;;;;;6.07;2.90;;;;;;;;;;4992702;28;20058;-67
2022/10/17 01:11:00;;;;;;;4.35;2.20;;;;;;;;;;4992318;28;20054;-67
2022/10/17 01:14:04;;;;;;;6.88;2.42;;;;;;;;;;4992488;28;20069;-67
2022/10/17 01:16:58;;;;;;;6.55;2.47;;;;;;;;;;4953384;28;20062;-67
2022/10/17 01:19:56;;;;;;;7.95;2.35;;;;;;;;;;4953596;29;20055;-67
2022/10/17 01:22:36;;;;;;;5.97;3.03;;;;;;;;;;4953629;29;20067;-66
2022/10/17 01:25:17;;;;;;;6.20;2.70;;;;;;;;;;4902594;29;20051;-67
2022/10/17 01:28:09;;;;;;;4.95;2.28;;;;;;;;;;4899182;29;20044;-67
2022/10/17 01:30:54;;;;;;;5.13;2.65;;;;;;;;;;4927214;29;20059;-67
2022/10/17 01:34:02;;;;;;;5.15;2.92;;;;;;;;;;4914894;29;20067;-67
2022/10/17 01:36:58;;;;;;;7.22;2.75;;;;;;;;;;4912368;29;20052;-67
2022/10/17 01:39:53;;;;;;;7.63;2.88;;;;;;;;;;4843188;29;20049;-67
2022/10/17 01:42:31;;;;;;;4.90;2.53;;;;;;;;;;4891150;29;20056;-67
2022/10/17 01:45:22;;;;;;;7.72;3.08;;;;;;;;;;4864948;29;20529;-67
2022/10/17 01:47:55;;;;;;;7.38;2.75;;;;;;;;;;4914843;29;20055;-68
2022/10/17 01:50:42;;;;;;;5.18;3.10;;;;;;;;;;4914569;29;20052;-67
2022/10/17 01:53:21;;;;;;;5.95;3.50;;;;;;;;;;4933608;29;20050;-67
2022/10/17 01:55:56;;;;;;;6.97;3.05;;;;;;;;;;4901970;29;20054;-68
2022/10/17 01:58:40;;;;;;;6.53;2.85;;;;;;;;;;4895422;29;20056;-68
2022/10/17 02:01:11;;;;;;;5.82;2.20;;;;;;;;;;4895375;29;20409;-67
2022/10/17 02:03:44;;;;;;;6.35;2.78;;;;;;;;;;4882631;29;20528;-68
2022/10/17 02:06:15;;;;;;;5.10;2.63;;;;;;;;;;4895596;29;20055;-68
2022/10/17 02:08:48;;;;;;;5.55;2.72;;;;;;;;;;4855642;29;20108;-68
2022/10/17 02:11:24;;;;;;;5.55;2.35;;;;;;;;;;4876655;29;20052;-68
2022/10/17 02:14:13;;;;;;;8.13;3.05;;;;;;;;;;4895381;29;20055;-68
2022/10/17 02:17:12;;;;;;;5.93;2.42;;;;;;;;;;4901010;29;20516;-68
2022/10/17 02:20:10;;;;;;;7.57;2.17;;;;;;;;;;4914180;29;20448;-68
2022/10/17 02:22:48;;;;;;;8.38;2.25;;;;;;;;;;4929352;29;20412;-68
2022/10/17 02:25:36;;;;;;;4.95;2.53;;;;;;;;;;4906415;29;20053;-67
2022/10/17 02:28:34;;;;;;;5.45;2.67;;;;;;;;;;4904684;29;20084;-67
2022/10/17 02:31:15;;;;;;;5.53;3.00;;;;;;;;;;4876439;29;20576;-68
2022/10/17 02:34:01;;;;;;;6.10;2.83;;;;;;;;;;4913585;29;20063;-67
2022/10/17 02:36:38;;;;;;;5.90;2.88;;;;;;;;;;4920600;29;20071;-67
2022/10/17 02:39:11;;;;;;;7.03;2.38;;;;;;;;;;4895056;29;20409;-68
2022/10/17 02:41:43;;;;;;;6.68;3.03;;;;;;;;;;4879256;29;20053;-68
2022/10/17 02:44:14;;;;;;;6.00;2.95;;;;;;;;;;4848744;29;20567;-68
2022/10/17 02:46:51;;;;;;;7.03;3.05;;;;;;;;;;4889907;29;20060;-67
2022/10/17 02:49:31;;;;;;;5.20;2.78;;;;;;;;;;4876342;29;20068;-68
2022/10/17 02:52:19;;;;;;;5.88;2.72;;;;;;;;;;4876150;29;20061;-68
2022/10/17 02:55:03;;;;;;;6.40;3.17;;;;;;;;;;4908891;29;20072;-67
2022/10/17 02:57:38;;;;;;;5.47;3.10;;;;;;;;;;4884488;29;20062;-67
2022/10/17 03:00:12;;;;;;;7.00;2.30;;;;;;;;;;4915333;29;20462;-67
2022/10/17 03:02:46;;;;;;;5.13;2.67;;;;;;;;;;4894674;29;20057;-68
2022/10/17 03:05:25;;;;;;;6.53;2.88;;;;;;;;;;4899719;29;20052;-68
2022/10/17 03:07:56;;;;;;;8.20;3.08;;;;;;;;;;4932479;29;20048;-68
2022/10/17 03:10:28;;;;;;;6.90;2.95;;;;;;;;;;4879162;29;20068;-67
2022/10/17 03:12:59;;;;;;;5.30;2.80;;;;;;;;;;4913403;29;20059;-67
2022/10/17 03:15:31;;;;;;;6.40;2.83;;;;;;;;;;4894348;29;20060;-67
2022/10/17 03:18:01;;;;;;;5.25;2.45;;;;;;;;;;4894634;29;20063;-67
2022/10/17 03:20:32;;;;;;;12.20;3.15;;;;;;;;;;4894355;29;20060;-67
2022/10/17 03:23:02;;;;;;;6.53;2.80;;;;;;;;;;4894383;29;20218;-67
2022/10/17 03:25:32;;;;;;;5.70;2.60;;;;;;;;;;4931035;29;20098;-68
2022/10/17 03:28:04;;;;;;;10.18;3.03;;;;;;;;;;4931837;29;20059;-67
2022/10/17 03:30:34;;;;;;;5.95;2.78;;;;;;;;;;4932337;29;20063;-67
2022/10/17 03:33:05;;;;;;;7.50;2.95;;;;;;;;;;4918867;29;20047;-68
2022/10/17 03:35:39;;;;;;;9.07;3.13;;;;;;;;;;4969864;28;20834;-68
2022/10/17 03:38:10;;;;;;;7.28;3.03;;;;;;;;;;4970346;28;20054;-67
2022/10/17 03:40:40;;;;;;;7.32;2.83;;;;;;;;;;4947456;29;20051;-67
2022/10/17 03:43:10;;;;;;;6.88;2.53;;;;;;;;;;4928913;29;20060;-67
2022/10/17 03:45:41;;;;;;;5.90;2.70;;;;;;;;;;4928361;29;20052;-67
2022/10/17 03:48:11;;;;;;;4.75;2.83;;;;;;;;;;4887345;29;20052;-67
2022/10/17 03:50:41;;;;;;;4.65;2.55;;;;;;;;;;4925600;29;20051;-67
2022/10/17 03:53:12;;;;;;;6.07;3.00;;;;;;;;;;4894241;29;20053;-67
2022/10/17 03:55:42;;;;;;;5.88;3.20;;;;;;;;;;4903629;29;20496;-67
2022/10/17 03:58:12;;;;;;;5.88;2.97;;;;;;;;;;4931799;29;20058;-67
2022/10/17 04:00:41;;;;;;;7.00;2.40;;;;;;;;;;4931871;29;20431;-67
2022/10/17 04:03:11;;;;;;;4.80;2.97;;;;;;;;;;4909133;29;20057;-69
2022/10/17 04:05:45;;;;;;;8.43;2.75;;;;;;;;;;4893966;29;20068;-68
2022/10/17 04:08:15;;;;;;;6.85;2.97;;;;;;;;;;4897952;29;20064;-67
2022/10/17 04:11:07;;;;;;;5.05;2.88;;;;;;;;;;4897824;29;20059;-67
2022/10/17 04:13:38;;;;;;;5.22;2.80;;;;;;;;;;4935381;29;20087;-68
2022/10/17 04:16:14;;;;;;;9.63;3.00;;;;;;;;;;4935671;29;20059;-67
2022/10/17 04:18:57;;;;;;;6.72;2.72;;;;;;;;;;4916349;29;20067;-67
2022/10/17 04:21:32;;;;;;;5.25;2.85;;;;;;;;;;4916137;29;20055;-68
2022/10/17 04:24:09;;;;;;;10.18;2.33;;;;;;;;;;4900928;29;20164;-67
2022/10/17 04:26:53;;;;;;;8.30;2.80;;;;;;;;;;4914619;29;20051;-67
2022/10/17 04:29:27;;;;;;;9.30;2.80;;;;;;;;;;4897219;29;20066;-67
2022/10/17 04:32:06;;;;;;;6.68;2.97;;;;;;;;;;4935028;29;20051;-68
2022/10/17 04:34:50;;;;;;;6.43;2.60;;;;;;;;;;4934912;29;20048;-68
2022/10/17 04:37:23;;;;;;;7.38;2.47;;;;;;;;;;4919121;29;20528;-67
2022/10/17 04:39:54;;;;;;;6.38;3.30;;;;;;;;;;4913693;29;20055;-68
2022/10/17 04:42:25;;;;;;;6.45;2.75;;;;;;;;;;4915985;29;20576;-68
2022/10/17 04:44:55;;;;;;;8.98;3.53;;;;;;;;;;4915694;29;20511;-68
2022/10/17 04:47:26;;;;;;;11.60;2.78;;;;;;;;;;4896883;29;20529;-68
2022/10/17 04:49:58;;;;;;;4.75;2.85;;;;;;;;;;4888852;29;20073;-67
2022/10/17 04:52:33;;;;;;;5.50;2.72;;;;;;;;;;4878161;29;20528;-67
2022/10/17 04:55:05;;;;;;;7.47;2.90;;;;;;;;;;4844138;29;20057;-68
2022/10/17 04:57:36;;;;;;;5.80;3.33;;;;;;;;;;4891110;29;20221;-67
2022/10/17 05:00:19;;;;;;;8.00;2.72;;;;;;;;;;4895648;29;20053;-67
2022/10/17 05:02:50;;;;;;;10.50;3.67;;;;;;;;;;4833395;29;20053;-68
2022/10/17 05:05:20;;;;;;;5.07;2.75;;;;;;;;;;4873974;29;20049;-68
2022/10/17 05:07:53;;;;;;;8.43;3.05;;;;;;;;;;4887690;29;20492;-68
2022/10/17 05:10:27;;;;;;;9.05;3.22;;;;;;;;;;4900755;29;20057;-67
2022/10/17 05:12:59;;;;;;;8.05;3.05;;;;;;;;;;4877592;29;20045;-68
2022/10/17 05:15:32;;;;;;;6.95;2.50;;;;;;;;;;4883327;29;20447;-67
2022/10/17 05:18:04;;;;;;;7.05;4.15;;;;;;;;;;4896157;29;20049;-68
2022/10/17 05:20:36;;;;;;;9.10;3.20;;;;;;;;;;4859003;29;20057;-67
2022/10/17 05:23:07;;;;;;;10.00;3.10;;;;;;;;;;4873952;29;20057;-68
2022/10/17 05:25:41;;;;;;;7.75;3.08;;;;;;;;;;4863834;29;20053;-68
2022/10/17 05:28:11;;;;;;;9.95;3.45;;;;;;;;;;4892988;29;20053;-67
2022/10/17 05:30:43;;;;;;;5.75;3.03;;;;;;;;;;4879628;29;20050;-68
2022/10/17 05:33:14;;;;;;;7.18;3.15;;;;;;;;;;4886980;29;20056;-68
2022/10/17 05:35:45;;;;;;;9.00;3.42;;;;;;;;;;4909387;29;20063;-68
2022/10/17 05:38:16;;;;;;;6.30;2.97;;;;;;;;;;4930456;29;20056;-68
2022/10/17 05:40:47;;;;;;;7.88;3.33;;;;;;;;;;4893275;29;20067;-68
2022/10/17 05:43:18;;;;;;;8.45;3.10;;;;;;;;;;4865403;29;20056;-66
2022/10/17 05:45:49;;;;;;;7.20;3.45;;;;;;;;;;4877295;29;20060;-68
2022/10/17 05:48:22;;;;;;;8.00;3.50;;;;;;;;;;4877000;29;20057;-68
2022/10/17 05:51:00;;;;;;;11.38;3.10;;;;;;;;;;4874773;29;20063;-68
2022/10/17 05:53:33;;;;;;;5.88;3.10;;;;;;;;;;4888614;29;20057;-68
2022/10/17 05:56:08;;;;;;;9.02;3.83;;;;;;;;;;4864764;29;20057;-68
2022/10/17 05:58:44;;;;;;;8.43;3.22;;;;;;;;;;4877009;29;20060;-68
2022/10/17 06:01:34;;;;;;;8.48;3.22;;;;;;;;;;4878776;29;20075;-67
2022/10/17 06:04:05;;;;;;;10.75;3.83;;;;;;;;;;4876544;29;20060;-68
2022/10/17 06:06:37;;;;;;;;;;;;;;;;;;4892117;29;20544;-69
2022/10/17 06:09:08;;;;;;;7.53;3.22;;;;;;;;;;4895289;29;19939;-67
2022/10/17 06:11:42;;;;;;;7.32;3.25;;;;;;;;;;4883310;29;20184;-69
2022/10/17 06:14:13;;;;;;;10.23;3.75;;;;;;;;;;4894997;29;20053;-68
2022/10/17 06:16:43;;;;;;;8.13;3.75;;;;;;;;;;4915273;29;20103;-69
2022/10/17 06:19:13;;;;;;;10.30;3.63;;;;;;;;;;4929610;29;20063;-68
2022/10/17 06:21:43;;;;;;;8.90;3.40;;;;;;;;;;4914319;29;20060;-68
2022/10/17 06:24:15;;;;;;;8.68;3.50;;;;;;;;;;4898222;29;20056;-68
2022/10/17 06:26:46;;;;;;;6.47;3.40;;;;;;;;;;4913930;29;20052;-69
2022/10/17 06:29:17;;;;;;;9.40;3.78;;;;;;;;;;4932023;29;20066;-69
2022/10/17 06:31:51;;;;;;;8.70;3.17;;;;;;;;;;4899349;29;20638;-69
2022/10/17 06:34:21;;;;;;;8.27;3.17;;;;;;;;;;4913593;29;20567;-69
2022/10/17 06:36:52;;;;;;;11.10;3.90;;;;;;;;;;4895005;29;20060;-68
2022/10/17 06:39:32;;;;;;;13.35;4.00;;;;;;;;;;4887419;29;20081;-69
2022/10/17 06:42:07;;;;;;;11.82;3.72;;;;;;;;;;4852681;29;20135;-68
2022/10/17 06:44:55;;;;;;;12.27;3.60;;;;;;;;;;4839959;29;20054;-68
2022/10/17 06:47:43;;;;;;;11.43;3.65;;;;;;;;;;4810534;29;20076;-68
2022/10/17 06:50:35;;;;;;;8.77;3.38;;;;;;;;;;4851549;29;20054;-68
2022/10/17 06:53:12;;;;;;;10.10;3.70;;;;;;;;;;4871889;29;20057;-69
2022/10/17 06:55:52;;;;;;;12.10;3.65;;;;;;;;;;4890926;29;20065;-68
2022/10/17 06:58:46;;;;;;;7.57;3.67;;;;;;;;;;4876291;29;20061;-68
2022/10/17 07:01:31;;;;;;;7.72;3.30;;;;;;;;;;4883536;29;20060;-68
2022/10/17 07:04:04;;;;;;;7.63;3.03;;;;;;;;;;4913533;29;20051;-68
2022/10/17 07:06:34;;;;;;;7.53;3.13;;;;;;;;;;4891146;29;20060;-68
2022/10/17 07:09:18;;;;;;;7.70;3.42;;;;;;;;;;4859104;29;20065;-69
2022/10/17 07:11:48;;;;;;;9.50;4.15;;;;;;;;;;4879945;29;20049;-68
2022/10/17 07:14:19;;;;;;;10.40;3.70;;;;;;;;;;4865031;29;20048;-69
2022/10/17 07:16:50;;;;;;;9.90;3.83;;;;;;;;;;4905803;29;20052;-68
2022/10/17 07:19:25;;;;;;;7.68;3.00;;;;;;;;;;4928433;29;20396;-69
2022/10/17 07:21:56;;;;;;;8.27;3.30;;;;;;;;;;4913584;29;20064;-68
2022/10/17 07:24:27;;;;;;;11.75;3.92;;;;;;;;;;4931967;29;20532;-68
2022/10/17 07:27:08;;;;;;;9.68;3.60;;;;;;;;;;4913242;29;20059;-69
2022/10/17 07:29:38;;;;;;;8.07;3.75;;;;;;;;;;4881800;29;20544;-67
2022/10/17 07:32:18;;;;;;;9.63;4.15;;;;;;;;;;4907154;29;20051;-68
2022/10/17 07:34:48;;;;;;;13.88;4.13;;;;;;;;;;4932154;29;20531;-68
2022/10/17 07:37:19;;;;;;;10.55;3.60;;;;;;;;;;4916302;29;20060;-69
2022/10/17 07:39:55;;;;;;;12.05;3.67;;;;;;;;;;4908018;29;20052;-69
2022/10/17 07:42:27;;;;;;;10.32;2.95;;;;;;;;;;4930694;29;20056;-68
2022/10/17 07:44:58;;;;;;;10.85;3.30;;;;;;;;;;4939729;29;20652;-68
2022/10/17 07:47:34;;;;;;;9.35;4.00;;;;;;;;;;4974421;28;20054;-68
2022/10/17 07:50:07;;;;;;;9.80;3.78;;;;;;;;;;4932431;29;20062;-68
2022/10/17 07:52:38;;;;;;;9.13;3.33;;;;;;;;;;4924403;29;20059;-69
2022/10/17 07:55:09;;;;;;;11.68;3.28;;;;;;;;;;4904421;29;20060;-68
2022/10/17 07:57:39;;;;;;;6.13;3.03;;;;;;;;;;4926123;29;20075;-67
2022/10/17 08:00:09;;;;;;;7.50;2.42;;;;;;;;;;4935895;29;20445;-68
2022/10/17 08:02:42;;;;;;;7.45;3.40;;;;;;;;;;4936345;29;20052;-68
2022/10/17 08:05:12;;;;;;;8.32;4.32;;;;;;;;;;4935789;29;20100;-68
2022/10/17 08:07:43;;;;;;;7.57;4.05;;;;;;;;;;4919961;29;20056;-69
2022/10/17 08:10:14;;;;;;;10.70;3.55;;;;;;;;;;4935549;29;20052;-68
2022/10/17 08:12:44;;;;;;;9.07;3.70;;;;;;;;;;4935828;29;20056;-69
2022/10/17 08:15:14;;;;;;;8.77;3.72;;;;;;;;;;4934974;29;20524;-68
2022/10/17 08:17:44;;;;;;;13.52;3.45;;;;;;;;;;4958079;28;20411;-70
2022/10/17 08:20:14;;;;;;;7.95;3.30;;;;;;;;;;4963260;28;20415;-70
2022/10/17 08:22:52;;;;;;;9.15;3.25;;;;;;;;;;4970694;28;20607;-69
2022/10/17 08:25:23;;;;;;;10.27;3.28;;;;;;;;;;4976978;28;20155;-69
2022/10/17 08:27:53;;;;;;;9.00;3.20;;;;;;;;;;5007619;28;20045;-70
2022/10/17 08:30:23;;;;;;;10.88;3.40;;;;;;;;;;5032803;28;20060;-69
2022/10/17 08:32:54;;;;;;;9.65;3.67;;;;;;;;;;4999336;28;20062;-68
2022/10/17 08:35:25;;;;;;;8.85;3.30;;;;;;;;;;4992948;28;20050;-68
2022/10/17 08:38:00;;;;;;;9.20;3.15;;;;;;;;;;4961456;28;20064;-68
2022/10/17 08:40:35;;;;;;;5.80;3.13;;;;;;;;;;4993143;28;20063;-69
2022/10/17 08:43:45;;;;;;;7.10;3.33;;;;;;;;;;4993164;28;20494;-69
2022/10/17 08:46:15;;;;;;;9.60;3.58;;;;;;;;;;4916680;29;20142;-70
2022/10/17 08:48:48;;;;;;;7.68;3.38;;;;;;;;;;4937156;28;20141;-70
2022/10/17 08:51:27;;;;;;;6.95;3.30;;;;;;;;;;4941761;28;20098;-70
2022/10/17 08:54:04;;;;;;;13.98;3.30;;;;;;;;;;4973148;28;20059;-70
2022/10/17 08:56:43;;;;;;;11.98;3.80;;;;;;;;;;4973460;28;20047;-70
2022/10/17 08:59:25;;;;;;;7.70;3.28;;;;;;;;;;4973334;28;20086;-69
2022/10/17 09:02:21;;;;;;;11.32;3.55;;;;;;;;;;4941166;28;20530;-69
2022/10/17 09:05:19;;;;;;;8.00;3.50;;;;;;;;;;4973405;28;20063;-69
2022/10/17 09:08:07;;;;;;;8.13;3.05;;;;;;;;;;4973240;28;20542;-69
2022/10/17 09:11:05;;;;;;;6.53;3.35;;;;;;;;;;4973193;28;20066;-70
2022/10/17 09:13:50;;;;;;;9.57;3.35;;;;;;;;;;4967688;28;20059;-70
2022/10/17 09:16:32;;;;;;;5.95;3.28;;;;;;;;;;4925535;28;20050;-70
2022/10/17 09:19:07;;;;;;;5.70;2.90;;;;;;;;;;4973106;28;20090;-70
2022/10/17 09:21:40;;;;;;;10.13;3.60;;;;;;;;;;5031902;28;20041;-69
2022/10/17 09:24:24;;;;;;;7.47;3.33;;;;;;;;;;5031781;28;20088;-70
2022/10/17 09:26:55;;;;;;;12.85;3.97;;;;;;;;;;5032074;28;20038;-70
2022/10/17 09:29:26;;;;;;;10.90;3.25;;;;;;;;;;4982625;28;20053;-70
2022/10/17 09:32:18;;;;;;;8.50;3.75;;;;;;;;;;4982608;28;20056;-70
2022/10/17 09:34:49;;;;;;;10.90;3.42;;;;;;;;;;5015073;28;20064;-70
2022/10/17 09:37:31;;;;;;;7.40;4.30;;;;;;;;;;5031583;28;20484;-70
2022/10/17 09:40:01;;;;;;;10.10;5.55;;;;;;;;;;5015188;28;20498;-70
2022/10/17 09:42:33;;;;;;;9.65;4.53;;;;;;;;;;4950017;28;20049;-70
2022/10/17 09:45:23;;;;;;;8.65;3.92;;;;;;;;;;4959431;28;20061;-70
2022/10/17 09:48:24;;;;;;;6.10;3.60;;;;;;;;;;4943602;28;20054;-70
2022/10/17 09:50:56;;;;;;;10.48;3.55;;;;;;;;;;5026554;28;20056;-70
2022/10/17 09:53:56;;;;;;;;;;;;;;;;;;5051728;28;20041;-70
2022/10/17 09:56:26;;;;;;;8.05;3.72;;;;;;;;;;5034187;28;20292;-70
2022/10/17 09:58:58;;;;;;;15.50;4.88;;;;;;;;;;5034801;28;20045;-70
2022/10/17 10:01:30;;;;;;;9.75;5.05;;;;;;;;;;5050865;28;20536;-71
2022/10/17 10:04:11;;;;;;;9.13;4.72;;;;;;;;;;5050147;28;20083;-70
2022/10/17 10:07:03;;;;;;;11.38;5.00;;;;;;;;;;5051261;28;20053;-70
2022/10/17 10:09:36;;;;;;;13.32;5.90;;;;;;;;;;5034044;28;20520;-71
2022/10/17 10:12:36;;;;;;;11.55;4.78;;;;;;;;;;5068624;28;20056;-70
2022/10/17 10:15:32;;;;;;;14.90;6.43;;;;;;;;;;5070801;28;20044;-70
2022/10/17 10:18:23;;;;;;;17.58;5.65;;;;;;;;;;5070721;28;20055;-70
2022/10/17 10:21:14;;;;;;;16.60;6.38;;;;;;;;;;5037455;28;20126;-70
2022/10/17 10:24:02;;;;;;;15.15;6.95;;;;;;;;;;5056318;28;20067;-71
2022/10/17 10:26:38;;;;;;;15.95;5.97;;;;;;;;;;5092939;28;20511;-71
2022/10/17 10:29:31;;;;;;;13.77;5.47;;;;;;;;;;5070087;28;20041;-70
2022/10/17 10:32:24;;;;;;;15.05;5.97;;;;;;;;;;5037687;28;20060;-70
2022/10/17 10:35:04;;;;;;;11.65;6.20;;;;;;;;;;5037895;28;20068;-70
2022/10/17 10:37:49;;;;;;;11.15;6.07;;;;;;;;;;5053557;28;20059;-71
2022/10/17 10:40:29;;;;;;;15.63;7.47;;;;;;;;;;5070382;28;20056;-70
2022/10/17 10:43:01;;;;;;;15.15;7.22;;;;;;;;;;5070541;28;20056;-69
2022/10/17 10:45:36;;;;;;;18.35;7.15;;;;;;;;;;5070202;28;20543;-71
2022/10/17 10:48:35;;;;;;;20.02;8.27;;;;;;;;;;5041689;28;20167;-71
2022/10/17 10:51:18;;;;;;;23.73;9.65;;;;;;;;;;5070141;28;20052;-72
2022/10/17 10:54:04;;;;;;;26.40;10.68;;;;;;;;;;5069922;28;20067;-71
2022/10/17 10:56:37;;;;;;;30.75;9.10;;;;;;;;;;5069967;28;20455;-71
2022/10/17 10:59:22;;;;;;;30.52;11.60;;;;;;;;;;5037112;28;20068;-71
2022/10/17 11:02:11;;;;;;;34.25;11.68;;;;;;;;;;5049345;28;20053;-71
2022/10/17 11:04:54;;;;;;;39.72;14.32;;;;;;;;;;5009967;28;20501;-71
2022/10/17 11:07:42;;;;;;;37.83;13.10;;;;;;;;;;5009843;28;20052;-71
2022/10/17 11:10:24;;;;;;;47.42;13.07;;;;;;;;;;5009199;28;20053;-71
2022/10/17 11:13:17;;;;;;;44.13;13.90;;;;;;;;;;5009686;28;20721;-71
2022/10/17 11:15:50;;;;;;;42.08;13.75;;;;;;;;;;4954537;28;20066;-71
2022/10/17 11:18:34;;;;;;;48.88;15.13;;;;;;;;;;4971076;28;20054;-71
2022/10/17 11:21:15;;;;;;;51.90;15.82;;;;;;;;;;4970840;28;20531;-71
2022/10/17 11:24:05;;;;;;;41.83;14.43;;;;;;;;;;4938839;28;20062;-71
2022/10/17 11:26:44;;;;;;;48.05;14.82;;;;;;;;;;4951352;29;20546;-72
2022/10/17 11:29:15;;;;;;;47.88;15.77;;;;;;;;;;4904070;29;20067;-71
2022/10/17 11:31:49;;;;;;;44.25;14.95;;;;;;;;;;4951340;29;20140;-69
2022/10/17 11:34:28;;;;;;;49.45;16.42;;;;;;;;;;4919292;29;20071;-72
2022/10/17 11:37:21;;;;;;;48.75;16.65;;;;;;;;;;4904034;29;20058;-71
2022/10/17 11:39:59;;;;;;;43.10;16.88;;;;;;;;;;4928375;29;20047;-71
2022/10/17 11:42:49;;;;;;;51.88;16.30;;;;;;;;;;4972759;28;20058;-71
2022/10/17 11:45:22;;;;;;;43.88;16.45;;;;;;;;;;4957909;28;20065;-71
2022/10/17 11:48:00;;;;;;;43.88;15.60;;;;;;;;;;4942374;28;20054;-71
2022/10/17 11:50:35;;;;;;;37.58;15.18;;;;;;;;;;4989975;28;20058;-71
2022/10/17 11:53:30;;;;;;;48.00;15.32;;;;;;;;;;5003425;28;20058;-71
2022/10/17 11:56:02;;;;;;;42.80;15.68;;;;;;;;;;4976927;28;20054;-70
2022/10/17 11:58:39;;;;;;;42.75;14.00;;;;;;;;;;4993009;28;20054;-72
2022/10/17 12:01:15;;;;;;;41.50;14.75;;;;;;;;;;4977157;28;20506;-71
2022/10/17 12:03:58;;;;;;;41.75;15.90;;;;;;;;;;4993550;28;20049;-69
2022/10/17 12:06:54;;;;;;;42.67;15.30;;;;;;;;;;5009584;28;20057;-71
2022/10/17 12:09:31;;;;;;;38.95;15.15;;;;;;;;;;5029661;28;20048;-71
2022/10/17 12:12:02;;;;;;;42.00;16.27;;;;;;;;;;5049437;28;20061;-70
2022/10/17 12:14:45;;;;;;;40.60;16.58;;;;;;;;;;5049119;28;20059;-70
2022/10/17 12:17:31;;;;;;;40.85;15.75;;;;;;;;;;5058102;28;20048;-71
2022/10/17 12:20:22;;;;;;;39.55;15.52;;;;;;;;;;5071461;28;20063;-72
2022/10/17 12:22:55;;;;;;;40.83;16.63;;;;;;;;;;5069299;28;20057;-72
2022/10/17 12:25:32;;;;;;;41.80;16.83;;;;;;;;;;5036067;28;20056;-71
2022/10/17 12:28:24;;;;;;;44.38;16.20;;;;;;;;;;5073227;28;20507;-70
2022/10/17 12:31:12;;;;;;;43.75;15.88;;;;;;;;;;5074850;28;20488;-71
2022/10/17 12:33:55;;;;;;;37.25;16.17;;;;;;;;;;5101193;28;20169;-72
2022/10/17 12:36:28;;;;;;;45.85;16.23;;;;;;;;;;5064296;28;20047;-72
2022/10/17 12:39:02;;;;;;;36.25;15.68;;;;;;;;;;5080543;28;20055;-71
2022/10/17 12:41:38;;;;;;;40.20;15.25;;;;;;;;;;5062817;28;20499;-72
2022/10/17 12:44:14;;;;;;;53.13;27.02;;;;;;;;;;5072384;28;20061;-67
2022/10/17 12:47:00;;;;;;;32.08;13.32;;;;;;;;;;5072697;28;20060;-69
2022/10/17 12:49:42;;;;;;;30.15;13.32;;;;;;;;;;5072362;28;20060;-73
2022/10/17 12:52:20;;;;;;;28.25;11.63;;;;;;;;;;5072448;28;20444;-72
2022/10/17 12:55:02;;;;;;;22.48;10.52;;;;;;;;;;5072284;28;20447;-74
2022/10/17 12:57:59;;;;;;;17.42;8.40;;;;;;;;;;5022580;28;20048;-71
2022/10/17 13:01:01;;;;;;;15.57;8.02;;;;;;;;;;5072297;28;20531;-73
2022/10/17 13:03:52;;;;;;;15.27;7.97;;;;;;;;;;5012449;28;20061;-72
2022/10/17 13:06:28;;;;;;;12.75;7.80;;;;;;;;;;5012670;28;20053;-73
2022/10/17 13:09:03;;;;;;;12.40;7.43;;;;;;;;;;5008477;28;20042;-72
2022/10/17 13:11:36;;;;;;;11.07;6.65;;;;;;;;;;4944481;28;20058;-72
2022/10/17 13:14:13;;;;;;;14.07;7.75;;;;;;;;;;4973680;28;20523;-72
2022/10/17 13:16:53;;;;;;;12.60;6.90;;;;;;;;;;4992618;28;20054;-72
2022/10/17 13:19:25;;;;;;;11.55;7.57;;;;;;;;;;4976613;28;20058;-72
2022/10/17 13:22:01;;;;;;;16.05;7.93;;;;;;;;;;4992851;28;20058;-70
2022/10/17 13:24:40;;;;;;;11.95;6.75;;;;;;;;;;4992405;28;20438;-70
2022/10/17 13:27:31;;;;;;;13.45;7.50;;;;;;;;;;4992511;28;20062;-74
2022/10/17 13:30:20;;;;;;;15.07;8.30;;;;;;;;;;4992289;28;20180;-73
2022/10/17 13:32:53;;;;;;;12.18;7.75;;;;;;;;;;4992244;28;20066;-72
2022/10/17 13:35:34;;;;;;;12.48;8.15;;;;;;;;;;4992367;28;20054;-74
2022/10/17 13:38:27;;;;;;;12.73;7.70;;;;;;;;;;4992085;28;20446;-73
2022/10/17 13:40:58;;;;;;;11.05;7.05;;;;;;;;;;5048673;28;20053;-71
2022/10/17 13:43:50;;;;;;;9.27;5.53;;;;;;;;;;5037969;28;20678;-71
2022/10/17 13:46:32;;;;;;;8.98;6.25;;;;;;;;;;5079290;28;20052;-72
2022/10/17 13:49:21;;;;;;;10.02;5.68;;;;;;;;;;5091582;28;20504;-71
2022/10/17 13:51:57;;;;;;;8.05;5.20;;;;;;;;;;5070849;28;20067;-71
2022/10/17 13:54:42;;;;;;;7.22;4.95;;;;;;;;;;5045902;28;20510;-70
2022/10/17 13:57:25;;;;;;;9.35;6.50;;;;;;;;;;5113839;28;20044;-74
2022/10/17 14:00:11;;;;;;;11.60;5.88;;;;;;;;;;5017939;28;20056;-71
2022/10/17 14:02:41;;;;;;;8.80;4.47;;;;;;;;;;5017982;28;20061;-73
2022/10/17 14:05:17;;;;;;;9.30;5.20;;;;;;;;;;5034167;28;20061;-72
2022/10/17 14:07:55;;;;;;;6.55;4.43;;;;;;;;;;5019027;28;20444;-67
2022/10/17 14:10:45;;;;;;;;;;;;;;;;;;5051380;28;20481;-71
2022/10/17 14:13:23;;;;;;;8.88;4.90;;;;;;;;;;5030686;28;20416;-72
2022/10/17 14:15:56;;;;;;;10.50;4.30;;;;;;;;;;4997706;28;20049;-71
2022/10/17 14:18:33;;;;;;;7.90;5.35;;;;;;;;;;4998071;28;20061;-72
2022/10/17 14:21:06;;;;;;;7.22;4.13;;;;;;;;;;5031222;28;20468;-71
2022/10/17 14:24:28;;;;;;;9.27;6.22;;;;;;;;;;5030373;28;20064;-70
2022/10/17 14:26:59;;;;;;;8.90;4.40;;;;;;;;;;4971724;28;20070;-70
2022/10/17 14:29:33;;;;;;;8.70;4.70;;;;;;;;;;4939735;28;20054;-73
2022/10/17 14:32:10;;;;;;;8.00;3.00;;;;;;;;;;4971560;28;20054;-70
2022/10/17 14:34:41;;;;;;;;;;;;;;;;;;4939810;28;20119;-70
2022/10/17 14:37:31;;;;;;;5.75;3.65;;;;;;;;;;4986247;28;19921;-74
2022/10/17 14:40:06;;;;;;;4.88;3.20;;;;;;;;;;4962951;28;20054;-70
2022/10/17 14:42:39;;;;;;;6.90;3.97;;;;;;;;;;4978632;28;20054;-71
2022/10/17 14:45:23;;;;;;;5.40;4.25;;;;;;;;;;5026966;28;20201;-71
2022/10/17 14:47:56;;;;;;;4.70;2.95;;;;;;;;;;5030298;28;20169;-72
2022/10/17 14:50:30;;;;;;;4.38;2.67;;;;;;;;;;4996874;28;20061;-70
2022/10/17 14:53:06;;;;;;;3.63;1.80;;;;;;;;;;5030444;28;20045;-71
2022/10/17 14:55:37;;;;;;;5.65;2.53;;;;;;;;;;5030105;28;20129;-71
2022/10/17 14:58:36;;;;;;;4.75;2.67;;;;;;;;;;4971135;28;20058;-72
2022/10/17 15:01:07;;;;;;;4.00;2.50;;;;;;;;;;4888094;29;20052;-72
2022/10/17 15:03:37;;;;;;;3.30;2.15;;;;;;;;;;4966933;28;20074;-73
2022/10/17 15:06:22;;;;;;;2.38;1.83;;;;;;;;;;4971227;28;20164;-71
2022/10/17 15:08:52;;;;;;;3.45;1.80;;;;;;;;;;4955420;28;20062;-73
2022/10/17 15:11:23;;;;;;;4.13;2.22;;;;;;;;;;4954992;28;20054;-70
2022/10/17 15:13:53;;;;;;;3.70;2.13;;;;;;;;;;4971231;28;20160;-71
2022/10/17 15:16:25;;;;;;;3.35;2.10;;;;;;;;;;4971171;28;20439;-71
2022/10/17 15:18:55;;;;;;;3.58;2.25;;;;;;;;;;4971109;28;20062;-70
2022/10/17 15:21:27;;;;;;;5.53;2.60;;;;;;;;;;4938878;28;20078;-69
2022/10/17 15:24:09;;;;;;;4.35;2.78;;;;;;;;;;4954832;28;20059;-71
2022/10/17 15:26:40;;;;;;;4.22;2.28;;;;;;;;;;4916355;29;20051;-70
2022/10/17 15:29:15;;;;;;;2.72;2.00;;;;;;;;;;4918665;28;20069;-71
2022/10/17 15:31:45;;;;;;;5.43;3.20;;;;;;;;;;4970637;28;20054;-69
2022/10/17 15:34:15;;;;;;;4.55;3.15;;;;;;;;;;4970665;28;20066;-70
2022/10/17 15:36:53;;;;;;;5.38;3.47;;;;;;;;;;4984560;28;20101;-70
2022/10/17 15:39:24;;;;;;;4.00;2.47;;;;;;;;;;5069795;28;20421;-70
2022/10/17 15:41:54;;;;;;;5.07;3.15;;;;;;;;;;5069564;28;20574;-73